Terminal Aerodrome Forecast
Issued by NWS

Home | Current Version | Previous Version | Text Only | Print | Product List | Glossary On
Versions: 1 2 3 4 5 6 7 8 9 10 11 12 13 14 15 16
602
FTUS43 KBIS 230534
TAFJMS
TAF
KJMS 230534Z 2306/2406 34013G20KT P6SM OVC007
     FM231000 34007KT P6SM VCSH BKN015 OVC090
     FM231200 34007KT P6SM BKN008 BKN120
     FM232000 02010KT P6SM VCSH BKN035 BKN110
     FM240000 03012KT P6SM SHRA BKN025 OVC110
     FM240500 03014KT 5SM SHRA BKN010 OVC030=

USA.gov is the U.S. government's official web portal to all federal, state and local government web resources and services.